sensor_id;sensor_type;location;lat;lon;timestamp;pressure;altitude;pressure_sealevel;temperature;humidity
75157;BME280;63736;50.076;8.198;2023-04-07T00:01:51;99507.97;;;7.19;100.00
75157;BME280;63736;50.076;8.198;2023-04-07T00:04:17;99508.81;;;7.20;100.00
75157;BME280;63736;50.076;8.198;2023-04-07T00:06:42;99498.94;;;7.22;100.00
75157;BME280;63736;50.076;8.198;2023-04-07T00:09:08;99503.25;;;7.23;100.00
75157;BME280;63736;50.076;8.198;2023-04-07T00:11:34;99509.34;;;7.25;100.00
75157;BME280;63736;50.076;8.198;2023-04-07T00:13:59;99501.38;;;7.25;100.00
75157;BME280;63736;50.076;8.198;2023-04-07T00:16:25;99499.53;;;7.25;100.00
75157;BME280;63736;50.076;8.198;2023-04-07T00:18:50;99496.88;;;7.25;100.00
75157;BME280;63736;50.076;8.198;2023-04-07T00:21:15;99483.59;;;7.25;100.00
75157;BME280;63736;50.076;8.198;2023-04-07T00:23:41;99481.81;;;7.26;100.00
75157;BME280;63736;50.076;8.198;2023-04-07T00:26:06;99483.53;;;7.27;100.00
75157;BME280;63736;50.076;8.198;2023-04-07T00:28:32;99479.88;;;7.28;100.00
75157;BME280;63736;50.076;8.198;2023-04-07T00:30:57;99480.63;;;7.30;100.00
75157;BME280;63736;50.076;8.198;2023-04-07T00:33:22;99474.38;;;7.31;100.00
75157;BME280;63736;50.076;8.198;2023-04-07T00:35:48;99461.09;;;7.31;100.00
75157;BME280;63736;50.076;8.198;2023-04-07T00:38:13;99470.66;;;7.34;100.00
75157;BME280;63736;50.076;8.198;2023-04-07T00:40:38;99471.59;;;7.33;100.00
75157;BME280;63736;50.076;8.198;2023-04-07T00:43:03;99468.00;;;7.34;100.00
75157;BME280;63736;50.076;8.198;2023-04-07T00:45:29;99469.66;;;7.35;100.00
75157;BME280;63736;50.076;8.198;2023-04-07T00:47:56;99459.78;;;7.37;100.00
75157;BME280;63736;50.076;8.198;2023-04-07T00:50:22;99455.31;;;7.37;100.00
75157;BME280;63736;50.076;8.198;2023-04-07T00:52:47;99450.75;;;7.39;100.00
75157;BME280;63736;50.076;8.198;2023-04-07T00:55:12;99443.84;;;7.37;100.00
75157;BME280;63736;50.076;8.198;2023-04-07T00:57:38;99442.88;;;7.38;100.00
75157;BME280;63736;50.076;8.198;2023-04-07T01:00:03;99442.13;;;7.36;100.00
75157;BME280;63736;50.076;8.198;2023-04-07T01:02:39;99441.31;;;7.35;100.00
75157;BME280;63736;50.076;8.198;2023-04-07T01:05:12;99439.72;;;7.33;100.00
75157;BME280;63736;50.076;8.198;2023-04-07T01:10:27;99437.88;;;7.33;100.00
75157;BME280;63736;50.076;8.198;2023-04-07T01:13:14;99430.16;;;7.30;100.00
75157;BME280;63736;50.076;8.198;2023-04-07T01:15:48;99427.38;;;7.32;100.00
75157;BME280;63736;50.076;8.198;2023-04-07T01:18:21;99424.72;;;7.32;100.00
75157;BME280;63736;50.076;8.198;2023-04-07T01:20:49;99415.91;;;7.31;100.00
75157;BME280;63736;50.076;8.198;2023-04-07T01:23:28;99421.34;;;7.30;100.00
75157;BME280;63736;50.076;8.198;2023-04-07T01:26:06;99415.28;;;7.27;100.00
75157;BME280;63736;50.076;8.198;2023-04-07T01:31:22;99411.88;;;7.25;100.00
75157;BME280;63736;50.076;8.198;2023-04-07T01:33:51;99408.38;;;7.25;100.00
75157;BME280;63736;50.076;8.198;2023-04-07T01:36:17;99407.53;;;7.24;100.00
75157;BME280;63736;50.076;8.198;2023-04-07T01:38:43;99412.00;;;7.24;100.00
75157;BME280;63736;50.076;8.198;2023-04-07T01:41:09;99402.13;;;7.26;100.00
75157;BME280;63736;50.076;8.198;2023-04-07T01:43:36;99402.94;;;7.26;100.00
75157;BME280;63736;50.076;8.198;2023-04-07T01:46:03;99400.28;;;7.26;100.00
75157;BME280;63736;50.076;8.198;2023-04-07T01:48:29;99395.94;;;7.25;100.00
75157;BME280;63736;50.076;8.198;2023-04-07T01:50:56;99394.16;;;7.26;100.00
75157;BME280;63736;50.076;8.198;2023-04-07T01:53:22;99398.50;;;7.27;100.00
75157;BME280;63736;50.076;8.198;2023-04-07T01:55:47;99398.50;;;7.27;100.00
75157;BME280;63736;50.076;8.198;2023-04-07T01:58:13;99394.25;;;7.24;100.00
75157;BME280;63736;50.076;8.198;2023-04-07T02:00:38;99397.88;;;7.23;100.00
75157;BME280;63736;50.076;8.198;2023-04-07T02:03:17;99396.03;;;7.24;100.00
75157;BME280;63736;50.076;8.198;2023-04-07T02:05:49;99397.00;;;7.23;100.00
75157;BME280;63736;50.076;8.198;2023-04-07T02:08:17;99388.19;;;7.22;100.00
75157;BME280;63736;50.076;8.198;2023-04-07T02:10:46;99385.53;;;7.22;100.00
75157;BME280;63736;50.076;8.198;2023-04-07T02:13:19;99390.97;;;7.21;100.00
75157;BME280;63736;50.076;8.198;2023-04-07T02:15:45;99385.78;;;7.19;100.00
75157;BME280;63736;50.076;8.198;2023-04-07T02:18:13;99386.84;;;7.17;100.00
75157;BME280;63736;50.076;8.198;2023-04-07T02:20:40;99389.50;;;7.17;100.00
75157;BME280;63736;50.076;8.198;2023-04-07T02:23:07;99380.78;;;7.15;100.00
75157;BME280;63736;50.076;8.198;2023-04-07T02:25:32;99381.72;;;7.14;100.00
75157;BME280;63736;50.076;8.198;2023-04-07T02:27:59;99390.75;;;7.11;100.00
75157;BME280;63736;50.076;8.198;2023-04-07T02:30:25;99380.16;;;7.11;100.00
75157;BME280;63736;50.076;8.198;2023-04-07T02:32:51;99382.81;;;7.11;100.00
75157;BME280;63736;50.076;8.198;2023-04-07T02:35:16;99382.81;;;7.11;100.00
75157;BME280;63736;50.076;8.198;2023-04-07T02:37:42;99384.72;;;7.09;100.00
75157;BME280;63736;50.076;8.198;2023-04-07T02:40:08;99380.25;;;7.09;100.00
75157;BME280;63736;50.076;8.198;2023-04-07T02:42:34;99379.31;;;7.10;100.00
75157;BME280;63736;50.076;8.198;2023-04-07T02:45:01;99380.03;;;7.13;100.00
75157;BME280;63736;50.076;8.198;2023-04-07T02:47:26;99376.41;;;7.14;100.00
75157;BME280;63736;50.076;8.198;2023-04-07T02:49:51;99374.28;;;7.19;100.00
75157;BME280;63736;50.076;8.198;2023-04-07T02:52:16;99374.16;;;7.20;100.00
75157;BME280;63736;50.076;8.198;2023-04-07T02:54:42;99371.63;;;7.19;100.00
75157;BME280;63736;50.076;8.198;2023-04-07T02:57:07;99373.44;;;7.18;100.00
75157;BME280;63736;50.076;8.198;2023-04-07T02:59:33;99377.16;;;7.16;100.00
75157;BME280;63736;50.076;8.198;2023-04-07T03:01:58;99371.09;;;7.14;100.00
75157;BME280;63736;50.076;8.198;2023-04-07T03:04:23;99365.91;;;7.12;100.00
75157;BME280;63736;50.076;8.198;2023-04-07T03:06:49;99367.72;;;7.11;100.00
75157;BME280;63736;50.076;8.198;2023-04-07T03:09:14;99365.91;;;7.12;100.00
75157;BME280;63736;50.076;8.198;2023-04-07T03:11:39;99365.06;;;7.11;100.00
75157;BME280;63736;50.076;8.198;2023-04-07T03:14:05;99375.69;;;7.11;100.00
75157;BME280;63736;50.076;8.198;2023-04-07T03:16:31;99360.59;;;7.12;100.00
75157;BME280;63736;50.076;8.198;2023-04-07T03:18:56;99362.41;;;7.11;100.00
75157;BME280;63736;50.076;8.198;2023-04-07T03:21:21;99363.25;;;7.12;100.00
75157;BME280;63736;50.076;8.198;2023-04-07T03:23:46;99359.00;;;7.09;100.00
75157;BME280;63736;50.076;8.198;2023-04-07T03:26:12;99355.72;;;7.06;100.00
75157;BME280;63736;50.076;8.198;2023-04-07T03:28:37;99362.22;;;7.02;100.00
75157;BME280;63736;50.076;8.198;2023-04-07T03:31:02;99358.94;;;6.98;100.00
75157;BME280;63736;50.076;8.198;2023-04-07T03:33:28;99356.50;;;6.95;100.00
75157;BME280;63736;50.076;8.198;2023-04-07T03:35:53;99363.84;;;6.91;100.00
75157;BME280;63736;50.076;8.198;2023-04-07T03:38:18;99363.13;;;6.89;100.00
75157;BME280;63736;50.076;8.198;2023-04-07T03:40:43;99358.75;;;6.88;100.00
75157;BME280;63736;50.076;8.198;2023-04-07T03:43:09;99361.53;;;6.87;100.00
75157;BME280;63736;50.076;8.198;2023-04-07T03:45:38;99359.72;;;6.87;100.00
75157;BME280;63736;50.076;8.198;2023-04-07T03:48:03;99360.53;;;6.88;100.00
75157;BME280;63736;50.076;8.198;2023-04-07T03:50:29;99341.13;;;6.87;100.00
75157;BME280;63736;50.076;8.198;2023-04-07T03:52:54;99349.09;;;6.87;100.00
75157;BME280;63736;50.076;8.198;2023-04-07T03:55:19;99351.75;;;6.87;100.00
75157;BME280;63736;50.076;8.198;2023-04-07T03:57:45;99353.56;;;6.87;100.00
75157;BME280;63736;50.076;8.198;2023-04-07T04:00:11;99342.94;;;6.87;100.00
75157;BME280;63736;50.076;8.198;2023-04-07T04:02:37;99339.41;;;6.86;100.00
75157;BME280;63736;50.076;8.198;2023-04-07T04:05:02;99344.63;;;6.88;100.00
75157;BME280;63736;50.076;8.198;2023-04-07T04:07:27;99339.31;;;6.88;100.00
75157;BME280;63736;50.076;8.198;2023-04-07T04:09:53;99341.00;;;6.89;100.00
75157;BME280;63736;50.076;8.198;2023-04-07T04:12:18;99345.25;;;6.91;100.00
75157;BME280;63736;50.076;8.198;2023-04-07T04:14:43;99335.50;;;6.92;100.00
75157;BME280;63736;50.076;8.198;2023-04-07T04:17:08;99346.84;;;6.94;100.00
75157;BME280;63736;50.076;8.198;2023-04-07T04:19:34;99344.19;;;6.94;100.00
75157;BME280;63736;50.076;8.198;2023-04-07T04:21:59;99339.72;;;6.94;100.00
75157;BME280;63736;50.076;8.198;2023-04-07T04:24:24;99345.03;;;6.94;100.00
75157;BME280;63736;50.076;8.198;2023-04-07T04:26:49;99348.41;;;6.97;100.00
75157;BME280;63736;50.076;8.198;2023-04-07T04:29:15;99345.88;;;6.95;100.00
75157;BME280;63736;50.076;8.198;2023-04-07T04:31:40;99342.28;;;6.96;100.00
75157;BME280;63736;50.076;8.198;2023-04-07T04:34:05;99351.06;;;6.97;100.00
75157;BME280;63736;50.076;8.198;2023-04-07T04:36:30;99355.56;;;6.96;100.00
75157;BME280;63736;50.076;8.198;2023-04-07T04:38:56;99344.94;;;6.96;100.00
75157;BME280;63736;50.076;8.198;2023-04-07T04:41:21;99345.66;;;6.98;100.00
75157;BME280;63736;50.076;8.198;2023-04-07T04:43:46;99346.50;;;6.99;100.00
75157;BME280;63736;50.076;8.198;2023-04-07T04:46:11;99349.16;;;6.99;100.00
75157;BME280;63736;50.076;8.198;2023-04-07T04:48:37;99346.41;;;7.00;100.00
75157;BME280;63736;50.076;8.198;2023-04-07T04:51:02;99345.44;;;7.01;100.00
75157;BME280;63736;50.076;8.198;2023-04-07T04:53:27;99351.59;;;7.02;100.00
75157;BME280;63736;50.076;8.198;2023-04-07T04:55:53;99352.47;;;7.02;100.00
75157;BME280;63736;50.076;8.198;2023-04-07T04:58:19;99355.84;;;7.04;100.00
75157;BME280;63736;50.076;8.198;2023-04-07T05:00:44;99362.09;;;7.03;100.00
75157;BME280;63736;50.076;8.198;2023-04-07T05:03:10;99357.66;;;7.04;100.00
75157;BME280;63736;50.076;8.198;2023-04-07T05:05:35;99352.13;;;7.07;100.00
75157;BME280;63736;50.076;8.198;2023-04-07T05:08:01;99359.13;;;7.08;100.00
75157;BME280;63736;50.076;8.198;2023-04-07T05:10:26;99363.56;;;7.07;100.00
75157;BME280;63736;50.076;8.198;2023-04-07T05:12:51;99361.66;;;7.09;100.00
75157;BME280;63736;50.076;8.198;2023-04-07T05:15:16;99359.75;;;7.11;100.00
75157;BME280;63736;50.076;8.198;2023-04-07T05:17:42;99361.34;;;7.14;100.00
75157;BME280;63736;50.076;8.198;2023-04-07T05:20:08;99361.94;;;7.18;100.00
75157;BME280;63736;50.076;8.198;2023-04-07T05:22:34;99359.28;;;7.18;100.00
75157;BME280;63736;50.076;8.198;2023-04-07T05:24:59;99354.72;;;7.20;100.00
75157;BME280;63736;50.076;8.198;2023-04-07T05:27:24;99360.03;;;7.20;100.00
75157;BME280;63736;50.076;8.198;2023-04-07T05:29:50;99359.22;;;7.19;100.00
75157;BME280;63736;50.076;8.198;2023-04-07T05:32:15;99362.81;;;7.18;100.00
75157;BME280;63736;50.076;8.198;2023-04-07T05:34:41;99359.09;;;7.21;100.00
75157;BME280;63736;50.076;8.198;2023-04-07T05:37:06;99352.72;;;7.23;100.00
75157;BME280;63736;50.076;8.198;2023-04-07T05:39:31;99366.63;;;7.27;100.00
75157;BME280;63736;50.076;8.198;2023-04-07T05:41:57;99363.97;;;7.27;100.00
75157;BME280;63736;50.076;8.198;2023-04-07T05:44:22;99364.69;;;7.29;100.00
75157;BME280;63736;50.076;8.198;2023-04-07T05:46:47;99362.88;;;7.30;100.00
75157;BME280;63736;50.076;8.198;2023-04-07T05:49:13;99361.81;;;7.32;100.00
75157;BME280;63736;50.076;8.198;2023-04-07T05:51:38;99363.50;;;7.33;100.00
75157;BME280;63736;50.076;8.198;2023-04-07T05:54:03;99355.41;;;7.35;100.00
75157;BME280;63736;50.076;8.198;2023-04-07T05:56:29;99362.31;;;7.37;100.00
75157;BME280;63736;50.076;8.198;2023-04-07T05:58:54;99361.97;;;7.42;100.00
75157;BME280;63736;50.076;8.198;2023-04-07T06:01:20;99363.56;;;7.44;100.00
75157;BME280;63736;50.076;8.198;2023-04-07T06:03:45;99368.75;;;7.46;100.00
75157;BME280;63736;50.076;8.198;2023-04-07T06:06:10;99366.09;;;7.46;100.00
75157;BME280;63736;50.076;8.198;2023-04-07T06:08:36;99366.84;;;7.48;100.00
75157;BME280;63736;50.076;8.198;2023-04-07T06:11:01;99364.91;;;7.50;100.00
75157;BME280;63736;50.076;8.198;2023-04-07T06:13:26;99363.94;;;7.51;100.00
75157;BME280;63736;50.076;8.198;2023-04-07T06:15:54;99373.50;;;7.54;100.00
75157;BME280;63736;50.076;8.198;2023-04-07T06:18:19;99372.44;;;7.56;100.00
75157;BME280;63736;50.076;8.198;2023-04-07T06:20:45;99369.56;;;7.59;100.00
75157;BME280;63736;50.076;8.198;2023-04-07T06:23:10;99372.94;;;7.61;100.00
75157;BME280;63736;50.076;8.198;2023-04-07T06:25:35;99369.22;;;7.64;100.00
75157;BME280;63736;50.076;8.198;2023-04-07T06:28:01;99368.97;;;7.67;100.00
75157;BME280;63736;50.076;8.198;2023-04-07T06:30:26;99371.41;;;7.70;100.00
75157;BME280;63736;50.076;8.198;2023-04-07T06:32:51;99368.53;;;7.73;100.00
75157;BME280;63736;50.076;8.198;2023-04-07T06:35:16;99367.44;;;7.76;100.00
75157;BME280;63736;50.076;8.198;2023-04-07T06:37:42;99375.81;;;7.83;100.00
75157;BME280;63736;50.076;8.198;2023-04-07T06:40:07;99369.06;;;7.90;100.00
75157;BME280;63736;50.076;8.198;2023-04-07T06:42:33;99367.75;;;7.96;100.00
75157;BME280;63736;50.076;8.198;2023-04-07T06:44:58;99372.63;;;8.02;100.00
75157;BME280;63736;50.076;8.198;2023-04-07T06:47:23;99374.81;;;8.08;100.00
75157;BME280;63736;50.076;8.198;2023-04-07T06:49:48;99371.78;;;8.13;100.00
75157;BME280;63736;50.076;8.198;2023-04-07T06:52:14;99377.97;;;8.13;100.00
75157;BME280;63736;50.076;8.198;2023-04-07T06:54:40;99377.59;;;8.18;100.00
75157;BME280;63736;50.076;8.198;2023-04-07T06:57:05;99378.22;;;8.21;100.00
75157;BME280;63736;50.076;8.198;2023-04-07T06:59:35;99377.03;;;8.25;100.00
75157;BME280;63736;50.076;8.198;2023-04-07T07:02:01;99373.53;;;8.25;100.00
75157;BME280;63736;50.076;8.198;2023-04-07T07:04:26;99380.53;;;8.26;100.00
75157;BME280;63736;50.076;8.198;2023-04-07T07:06:51;99379.56;;;8.27;100.00
75157;BME280;63736;50.076;8.198;2023-04-07T07:09:16;99378.59;;;8.28;100.00
75157;BME280;63736;50.076;8.198;2023-04-07T07:11:42;99381.75;;;8.33;100.00
75157;BME280;63736;50.076;8.198;2023-04-07T07:14:07;99375.34;;;8.36;100.00
75157;BME280;63736;50.076;8.198;2023-04-07T07:16:33;99388.44;;;8.39;100.00
75157;BME280;63736;50.076;8.198;2023-04-07T07:18:58;99379.25;;;8.43;100.00
75157;BME280;63736;50.076;8.198;2023-04-07T07:21:23;99383.69;;;8.42;100.00
75157;BME280;63736;50.076;8.198;2023-04-07T07:23:49;99383.59;;;8.44;100.00
75157;BME280;63736;50.076;8.198;2023-04-07T07:26:14;99376.47;;;8.44;100.00
75157;BME280;63736;50.076;8.198;2023-04-07T07:28:39;99379.66;;;8.50;100.00
75157;BME280;63736;50.076;8.198;2023-04-07T07:31:09;99384.59;;;8.54;100.00
75157;BME280;63736;50.076;8.198;2023-04-07T07:33:35;99383.28;;;8.60;100.00
75157;BME280;63736;50.076;8.198;2023-04-07T07:36:00;99385.34;;;8.68;100.00
75157;BME280;63736;50.076;8.198;2023-04-07T07:38:25;99389.81;;;8.79;100.00
75157;BME280;63736;50.076;8.198;2023-04-07T07:40:51;99390.91;;;8.87;100.00
75157;BME280;63736;50.076;8.198;2023-04-07T07:43:17;99396.72;;;8.92;100.00
75157;BME280;63736;50.076;8.198;2023-04-07T07:45:42;99393.59;;;8.99;100.00
75157;BME280;63736;50.076;8.198;2023-04-07T07:48:07;99387.88;;;9.03;100.00
75157;BME280;63736;50.076;8.198;2023-04-07T07:50:32;99394.78;;;9.06;100.00
75157;BME280;63736;50.076;8.198;2023-04-07T07:52:58;99390.06;;;9.09;100.00
75157;BME280;63736;50.076;8.198;2023-04-07T07:55:23;99395.00;;;9.14;100.00
75157;BME280;63736;50.076;8.198;2023-04-07T07:57:48;99402.50;;;9.20;100.00
75157;BME280;63736;50.076;8.198;2023-04-07T08:00:14;99396.94;;;9.23;100.00
75157;BME280;63736;50.076;8.198;2023-04-07T08:02:39;99407.34;;;9.26;100.00
75157;BME280;63736;50.076;8.198;2023-04-07T08:05:05;99403.47;;;9.31;100.00
75157;BME280;63736;50.076;8.198;2023-04-07T08:07:31;99405.03;;;9.33;100.00
75157;BME280;63736;50.076;8.198;2023-04-07T08:09:56;99409.53;;;9.33;100.00
75157;BME280;63736;50.076;8.198;2023-04-07T08:12:21;99412.91;;;9.35;100.00
75157;BME280;63736;50.076;8.198;2023-04-07T08:14:46;99409.75;;;9.41;100.00
75157;BME280;63736;50.076;8.198;2023-04-07T08:17:13;99414.09;;;9.53;100.00
75157;BME280;63736;50.076;8.198;2023-04-07T08:19:38;99413.94;;;9.66;100.00
75157;BME280;63736;50.076;8.198;2023-04-07T08:22:03;99416.56;;;9.78;100.00
75157;BME280;63736;50.076;8.198;2023-04-07T08:24:29;99417.50;;;9.88;100.00
75157;BME280;63736;50.076;8.198;2023-04-07T08:26:54;99430.19;;;9.96;100.00
75157;BME280;63736;50.076;8.198;2023-04-07T08:29:20;99420.00;;;10.01;100.00
75157;BME280;63736;50.076;8.198;2023-04-07T08:31:45;99426.63;;;10.06;100.00
75157;BME280;63736;50.076;8.198;2023-04-07T08:34:10;99420.19;;;10.09;100.00
75157;BME280;63736;50.076;8.198;2023-04-07T08:36:36;99426.25;;;10.11;100.00
75157;BME280;63736;50.076;8.198;2023-04-07T08:39:01;99426.38;;;10.09;100.00
75157;BME280;63736;50.076;8.198;2023-04-07T08:41:34;99420.72;;;10.03;100.00
75157;BME280;63736;50.076;8.198;2023-04-07T08:44:00;99429.34;;;9.95;100.00
75157;BME280;63736;50.076;8.198;2023-04-07T08:46:26;99423.56;;;9.90;100.00
75157;BME280;63736;50.076;8.198;2023-04-07T08:48:55;99428.16;;;9.88;100.00
75157;BME280;63736;50.076;8.198;2023-04-07T08:51:26;99432.91;;;9.84;100.00
75157;BME280;63736;50.076;8.198;2023-04-07T08:53:53;99436.31;;;9.75;100.00
75157;BME280;63736;50.076;8.198;2023-04-07T08:56:19;99430.38;;;9.71;100.00
75157;BME280;63736;50.076;8.198;2023-04-07T08:58:47;99433.66;;;9.75;100.00
75157;BME280;63736;50.076;8.198;2023-04-07T09:01:13;99441.28;;;9.80;100.00
75157;BME280;63736;50.076;8.198;2023-04-07T09:03:40;99437.41;;;9.84;100.00
75157;BME280;63736;50.076;8.198;2023-04-07T09:06:06;99446.00;;;9.87;100.00
75157;BME280;63736;50.076;8.198;2023-04-07T09:08:31;99445.38;;;9.95;100.00
75157;BME280;63736;50.076;8.198;2023-04-07T09:10:57;99444.66;;;10.14;100.00
75157;BME280;63736;50.076;8.198;2023-04-07T09:13:25;99451.31;;;10.52;100.00
75157;BME280;63736;50.076;8.198;2023-04-07T09:15:51;99431.31;;;10.99;100.00
75157;BME280;63736;50.076;8.198;2023-04-07T09:18:16;99436.00;;;11.47;100.00
75157;BME280;63736;50.076;8.198;2023-04-07T09:20:56;99439.72;;;11.85;100.00
75157;BME280;63736;50.076;8.198;2023-04-07T09:23:30;99434.53;;;12.13;100.00
75157;BME280;63736;50.076;8.198;2023-04-07T09:25:56;99444.97;;;12.26;100.00
75157;BME280;63736;50.076;8.198;2023-04-07T09:28:25;99443.00;;;12.28;100.00
75157;BME280;63736;50.076;8.198;2023-04-07T09:30:54;99443.41;;;12.23;100.00
75157;BME280;63736;50.076;8.198;2023-04-07T09:33:26;99443.28;;;12.15;100.00
75157;BME280;63736;50.076;8.198;2023-04-07T09:35:53;99444.41;;;12.03;100.00
75157;BME280;63736;50.076;8.198;2023-04-07T09:38:18;99446.31;;;11.91;100.00
75157;BME280;63736;50.076;8.198;2023-04-07T09:40:43;99443.09;;;11.78;100.00
75157;BME280;63736;50.076;8.198;2023-04-07T09:43:15;99446.31;;;11.62;100.00
75157;BME280;63736;50.076;8.198;2023-04-07T09:45:41;99441.78;;;11.52;100.00
75157;BME280;63736;50.076;8.198;2023-04-07T09:48:07;99438.25;;;11.52;100.00
75157;BME280;63736;50.076;8.198;2023-04-07T09:50:42;99442.06;;;11.59;100.00
75157;BME280;63736;50.076;8.198;2023-04-07T09:53:14;99447.00;;;11.64;100.00
75157;BME280;63736;50.076;8.198;2023-04-07T09:55:39;99448.69;;;11.65;100.00
75157;BME280;63736;50.076;8.198;2023-04-07T09:58:06;99447.69;;;11.56;100.00
75157;BME280;63736;50.076;8.198;2023-04-07T10:00:31;99447.66;;;11.46;100.00
75157;BME280;63736;50.076;8.198;2023-04-07T10:02:57;99453.53;;;11.30;100.00
75157;BME280;63736;50.076;8.198;2023-04-07T10:05:23;99458.53;;;11.14;100.00
75157;BME280;63736;50.076;8.198;2023-04-07T10:07:49;99454.25;;;11.01;100.00
75157;BME280;63736;50.076;8.198;2023-04-07T10:10:14;99461.81;;;10.96;100.00
75157;BME280;63736;50.076;8.198;2023-04-07T10:12:40;99464.75;;;10.93;100.00
75157;BME280;63736;50.076;8.198;2023-04-07T10:15:06;99464.25;;;10.99;100.00
75157;BME280;63736;50.076;8.198;2023-04-07T10:17:32;99456.91;;;11.01;100.00
75157;BME280;63736;50.076;8.198;2023-04-07T10:19:58;99459.47;;;11.03;100.00
75157;BME280;63736;50.076;8.198;2023-04-07T10:22:27;99461.50;;;11.11;100.00
75157;BME280;63736;50.076;8.198;2023-04-07T10:24:59;99464.03;;;11.22;100.00
75157;BME280;63736;50.076;8.198;2023-04-07T10:27:50;99453.69;;;11.38;100.00
75157;BME280;63736;50.076;8.198;2023-04-07T10:30:22;99461.78;;;11.58;100.00
75157;BME280;63736;50.076;8.198;2023-04-07T10:32:50;99468.56;;;11.82;100.00
75157;BME280;63736;50.076;8.198;2023-04-07T10:35:17;99469.50;;;12.02;100.00
75157;BME280;63736;50.076;8.198;2023-04-07T10:40:33;99471.47;;;12.10;100.00
75157;BME280;63736;50.076;8.198;2023-04-07T10:42:59;99477.81;;;12.09;100.00
75157;BME280;63736;50.076;8.198;2023-04-07T10:48:17;99473.47;;;12.17;100.00
75157;BME280;63736;50.076;8.198;2023-04-07T10:50:44;99484.84;;;12.19;100.00
75157;BME280;63736;50.076;8.198;2023-04-07T10:53:11;99478.38;;;12.22;100.00
75157;BME280;63736;50.076;8.198;2023-04-07T10:55:38;99482.34;;;12.28;100.00
75157;BME280;63736;50.076;8.198;2023-04-07T10:58:23;99480.78;;;12.45;100.00
75157;BME280;63736;50.076;8.198;2023-04-07T11:03:40;99480.81;;;12.92;100.00
75157;BME280;63736;50.076;8.198;2023-04-07T11:06:13;99479.78;;;13.03;100.00
75157;BME280;63736;50.076;8.198;2023-04-07T11:08:40;99487.13;;;13.11;100.00
75157;BME280;63736;50.076;8.198;2023-04-07T11:11:07;99485.00;;;13.14;100.00
75157;BME280;63736;50.076;8.198;2023-04-07T11:13:44;99486.03;;;13.03;100.00
75157;BME280;63736;50.076;8.198;2023-04-07T11:16:11;99488.31;;;12.88;100.00
75157;BME280;63736;50.076;8.198;2023-04-07T11:18:37;99486.09;;;12.74;100.00
75157;BME280;63736;50.076;8.198;2023-04-07T11:21:03;99487.78;;;12.65;100.00
75157;BME280;63736;50.076;8.198;2023-04-07T11:23:45;99482.44;;;12.55;100.00
75157;BME280;63736;50.076;8.198;2023-04-07T11:26:12;99488.66;;;12.46;100.00
75157;BME280;63736;50.076;8.198;2023-04-07T11:28:48;99496.84;;;12.35;100.00
75157;BME280;63736;50.076;8.198;2023-04-07T11:31:28;99492.19;;;12.27;100.00
75157;BME280;63736;50.076;8.198;2023-04-07T11:34:01;99489.94;;;12.22;100.00
75157;BME280;63736;50.076;8.198;2023-04-07T11:36:28;99497.69;;;12.26;100.00
75157;BME280;63736;50.076;8.198;2023-04-07T11:38:55;99499.38;;;12.36;100.00
75157;BME280;63736;50.076;8.198;2023-04-07T11:41:21;99495.28;;;12.52;100.00
75157;BME280;63736;50.076;8.198;2023-04-07T11:43:47;99492.75;;;12.60;100.00
75157;BME280;63736;50.076;8.198;2023-04-07T11:46:14;99493.84;;;12.67;100.00
75157;BME280;63736;50.076;8.198;2023-04-07T11:48:42;99494.97;;;12.65;100.00
75157;BME280;63736;50.076;8.198;2023-04-07T11:51:18;99502.75;;;12.58;100.00
75157;BME280;63736;50.076;8.198;2023-04-07T11:53:44;99511.91;;;12.46;100.00
75157;BME280;63736;50.076;8.198;2023-04-07T11:56:13;99509.50;;;12.33;100.00
75157;BME280;63736;50.076;8.198;2023-04-07T11:58:46;99504.47;;;12.20;100.00
75157;BME280;63736;50.076;8.198;2023-04-07T12:01:12;99518.41;;;12.14;100.00
75157;BME280;63736;50.076;8.198;2023-04-07T12:03:57;99505.72;;;12.06;100.00
75157;BME280;63736;50.076;8.198;2023-04-07T12:06:35;99511.75;;;11.98;100.00
75157;BME280;63736;50.076;8.198;2023-04-07T12:09:06;99514.13;;;11.92;100.00
75157;BME280;63736;50.076;8.198;2023-04-07T12:11:32;99523.94;;;11.81;100.00
75157;BME280;63736;50.076;8.198;2023-04-07T12:13:59;99520.50;;;11.60;100.00
75157;BME280;63736;50.076;8.198;2023-04-07T12:16:24;99527.78;;;11.48;100.00
75157;BME280;63736;50.076;8.198;2023-04-07T12:18:50;99525.63;;;11.41;100.00
75157;BME280;63736;50.076;8.198;2023-04-07T12:21:16;99520.84;;;11.35;100.00
75157;BME280;63736;50.076;8.198;2023-04-07T12:23:42;99529.38;;;11.29;100.00
75157;BME280;63736;50.076;8.198;2023-04-07T12:26:07;99526.50;;;11.21;100.00
75157;BME280;63736;50.076;8.198;2023-04-07T12:28:34;99534.09;;;11.16;100.00
75157;BME280;63736;50.076;8.198;2023-04-07T12:31:01;99531.97;;;11.10;100.00
75157;BME280;63736;50.076;8.198;2023-04-07T12:33:26;99538.56;;;11.05;100.00
75157;BME280;63736;50.076;8.198;2023-04-07T12:35:51;99535.88;;;11.05;100.00
75157;BME280;63736;50.076;8.198;2023-04-07T12:38:17;99537.31;;;11.10;100.00
75157;BME280;63736;50.076;8.198;2023-04-07T12:40:42;99539.00;;;11.11;100.00
75157;BME280;63736;50.076;8.198;2023-04-07T12:43:07;99543.34;;;11.12;100.00
75157;BME280;63736;50.076;8.198;2023-04-07T12:45:33;99548.00;;;11.10;100.00
75157;BME280;63736;50.076;8.198;2023-04-07T12:47:58;99544.00;;;11.04;100.00
75157;BME280;63736;50.076;8.198;2023-04-07T12:50:24;99546.38;;;10.97;100.00
75157;BME280;63736;50.076;8.198;2023-04-07T12:52:50;99556.00;;;10.88;100.00
75157;BME280;63736;50.076;8.198;2023-04-07T12:55:17;99556.28;;;10.85;100.00
75157;BME280;63736;50.076;8.198;2023-04-07T12:57:42;99554.56;;;10.84;100.00
75157;BME280;63736;50.076;8.198;2023-04-07T13:00:08;99552.50;;;10.88;100.00
75157;BME280;63736;50.076;8.198;2023-04-07T13:02:34;99551.38;;;10.90;100.00
75157;BME280;63736;50.076;8.198;2023-04-07T13:05:00;99553.22;;;10.90;100.00
75157;BME280;63736;50.076;8.198;2023-04-07T13:07:26;99553.34;;;10.88;100.00
75157;BME280;63736;50.076;8.198;2023-04-07T13:09:51;99547.66;;;10.82;100.00